createdAt,value
2024-05-09T00:00:36.311Z,4.25
2024-05-09T00:03:08.139Z,3.93
2024-05-09T00:05:35.994Z,3.77
2024-05-09T00:08:03.472Z,3.72
2024-05-09T00:10:36.244Z,4.20
2024-05-09T00:13:06.154Z,4.33
2024-05-09T00:15:33.812Z,3.80
2024-05-09T00:18:01.128Z,3.60
2024-05-09T00:20:33.532Z,4.23
2024-05-09T00:23:06.784Z,3.73
2024-05-09T00:25:33.668Z,4.05
2024-05-09T00:28:00.350Z,3.80
2024-05-09T00:30:33.592Z,4.00
2024-05-09T00:33:04.041Z,3.33
2024-05-09T00:35:31.485Z,3.43
2024-05-09T00:37:58.220Z,4.03
2024-05-09T00:40:35.181Z,3.57
2024-05-09T00:43:06.342Z,3.50
2024-05-09T00:45:34.206Z,3.53
2024-05-09T00:48:07.129Z,3.33
2024-05-09T00:50:37.996Z,2.67
2024-05-09T00:53:10.814Z,3.20
2024-05-09T00:55:38.884Z,1.87
2024-05-09T00:58:07.680Z,2.20
2024-05-09T01:00:39.239Z,2.17
2024-05-09T01:03:10.542Z,1.80
2024-05-09T01:05:39.574Z,1.20
2024-05-09T01:08:07.631Z,1.55
2024-05-09T01:10:35.984Z,1.40
2024-05-09T01:13:04.564Z,1.03
2024-05-09T01:15:31.471Z,1.50
2024-05-09T01:18:00.898Z,1.57
2024-05-09T01:20:37.244Z,1.50
2024-05-09T01:23:10.009Z,1.77
2024-05-09T01:25:37.132Z,1.70
2024-05-09T01:28:03.953Z,1.80
2024-05-09T01:30:34.493Z,1.90
2024-05-09T01:33:05.000Z,1.67
2024-05-09T01:35:32.523Z,2.17
2024-05-09T01:37:59.280Z,2.07
2024-05-09T01:40:36.151Z,2.00
2024-05-09T01:43:05.718Z,2.43
2024-05-09T01:45:32.352Z,2.77
2024-05-09T01:47:59.287Z,2.38
2024-05-09T01:50:37.164Z,2.00
2024-05-09T01:53:08.147Z,2.43
2024-05-09T01:55:34.915Z,2.50
2024-05-09T01:58:01.564Z,2.28
2024-05-09T02:00:38.055Z,2.90
2024-05-09T02:03:14.998Z,2.67
2024-05-09T02:05:48.072Z,2.55
2024-05-09T02:08:18.036Z,2.83
2024-05-09T02:10:46.535Z,2.93
2024-05-09T02:13:13.655Z,2.78
2024-05-09T02:15:40.625Z,2.87
2024-05-09T02:18:08.188Z,2.80
2024-05-09T02:20:39.124Z,3.00
2024-05-09T02:23:06.777Z,3.47
2024-05-09T02:25:33.823Z,3.63
2024-05-09T02:28:00.667Z,2.73
2024-05-09T02:30:37.851Z,3.80
2024-05-09T02:33:08.227Z,2.70
2024-05-09T02:35:35.880Z,3.20
2024-05-09T02:38:02.923Z,2.30
2024-05-09T02:40:36.561Z,2.27
2024-05-09T02:43:06.432Z,2.57
2024-05-09T02:45:33.459Z,2.80
2024-05-09T02:48:00.797Z,2.08
2024-05-09T02:50:34.572Z,1.97
2024-05-09T02:53:06.133Z,1.50
2024-05-09T02:55:33.230Z,2.17
2024-05-09T02:58:00.027Z,1.97
2024-05-09T03:00:35.167Z,1.83
2024-05-09T03:03:08.317Z,1.80
2024-05-09T03:05:36.301Z,2.63
2024-05-09T03:08:03.260Z,2.40
2024-05-09T03:10:35.576Z,2.00
2024-05-09T03:13:13.908Z,1.77
2024-05-09T03:15:42.395Z,2.33
2024-05-09T03:18:09.385Z,2.23
2024-05-09T03:20:37.147Z,2.30
2024-05-09T03:23:05.470Z,2.00
2024-05-09T03:25:32.591Z,1.90
2024-05-09T03:27:59.481Z,2.55
2024-05-09T03:30:38.096Z,2.13
2024-05-09T03:33:13.501Z,1.47
2024-05-09T03:35:41.120Z,2.07
2024-05-09T03:38:07.878Z,1.50
2024-05-09T03:40:34.574Z,1.17
2024-05-09T03:43:01.157Z,1.40
2024-05-09T03:45:27.781Z,1.40
2024-05-09T03:47:54.712Z,1.30
2024-05-09T03:50:29.839Z,1.63
2024-05-09T03:53:01.666Z,1.30
2024-05-09T03:55:28.744Z,1.00
2024-05-09T03:57:55.423Z,1.30
2024-05-09T04:00:30.882Z,1.23
2024-05-09T04:03:04.443Z,1.42
2024-05-09T04:05:32.676Z,1.23
2024-05-09T04:07:59.527Z,1.70
2024-05-09T04:10:32.823Z,1.88
2024-05-09T04:13:01.195Z,1.53
2024-05-09T04:15:27.934Z,2.00
2024-05-09T04:17:54.799Z,1.92
2024-05-09T04:20:32.587Z,1.97
2024-05-09T04:23:05.579Z,1.80
2024-05-09T04:25:32.474Z,1.63
2024-05-09T04:27:59.160Z,1.70
2024-05-09T04:30:34.686Z,1.97
2024-05-09T04:33:06.178Z,1.90
2024-05-09T04:35:33.422Z,1.60
2024-05-09T04:38:00.514Z,1.60
2024-05-09T04:40:33.184Z,1.80
2024-05-09T04:43:03.432Z,2.03
2024-05-09T04:45:30.335Z,1.60
2024-05-09T04:47:57.239Z,1.63
2024-05-09T04:50:33.385Z,1.30
2024-05-09T04:53:04.365Z,1.50
2024-05-09T04:55:31.586Z,1.50
2024-05-09T04:57:58.296Z,1.80
2024-05-09T05:00:32.626Z,2.35
2024-05-09T05:03:10.092Z,2.23
2024-05-09T05:05:42.281Z,2.30
2024-05-09T05:08:16.605Z,1.80
2024-05-09T05:10:44.439Z,2.33
2024-05-09T05:13:20.284Z,2.10
2024-05-09T05:15:49.712Z,1.80
2024-05-09T05:18:16.822Z,1.83
2024-05-09T05:20:44.481Z,1.70
2024-05-09T05:23:13.750Z,1.70
2024-05-09T05:25:41.307Z,1.85
2024-05-09T05:28:08.276Z,2.10
2024-05-09T05:30:37.740Z,2.27
2024-05-09T05:33:06.097Z,2.85
2024-05-09T05:35:33.594Z,3.30
2024-05-09T05:38:00.511Z,4.43
2024-05-09T05:40:33.468Z,5.03
2024-05-09T05:43:10.810Z,4.80
2024-05-09T05:45:38.621Z,5.70
2024-05-09T05:48:07.341Z,6.83
2024-05-09T05:50:37.276Z,5.75
2024-05-09T05:53:09.858Z,6.30
2024-05-09T05:55:39.116Z,6.63
2024-05-09T05:58:09.242Z,6.97
2024-05-09T06:00:39.026Z,7.10
2024-05-09T06:03:08.460Z,7.00
2024-05-09T06:05:36.664Z,6.87
2024-05-09T06:08:03.596Z,7.80
2024-05-09T06:10:37.699Z,7.57
2024-05-09T06:13:07.528Z,7.13
2024-05-09T06:15:34.337Z,8.32
2024-05-09T06:18:01.634Z,8.43
2024-05-09T06:20:35.544Z,8.10
2024-05-09T06:23:05.779Z,8.25
2024-05-09T06:25:32.734Z,7.93
2024-05-09T06:28:00.605Z,8.10
2024-05-09T06:30:36.687Z,8.40
2024-05-09T06:33:07.597Z,8.10
2024-05-09T06:35:34.712Z,9.20
2024-05-09T06:38:01.733Z,8.30
2024-05-09T06:40:36.607Z,8.25
2024-05-09T06:43:10.997Z,9.17
2024-05-09T06:45:39.508Z,9.30
2024-05-09T06:48:07.106Z,9.80
2024-05-09T06:50:37.728Z,8.67
2024-05-09T06:53:06.021Z,8.90
2024-05-09T06:55:32.796Z,9.00
2024-05-09T06:57:59.521Z,8.40
2024-05-09T07:00:34.800Z,8.83
2024-05-09T07:03:14.973Z,8.30
2024-05-09T07:05:44.417Z,8.90
2024-05-09T07:08:11.416Z,8.87
2024-05-09T07:10:38.583Z,8.70
2024-05-09T07:13:13.454Z,8.68
2024-05-09T07:15:41.581Z,8.50
2024-05-09T07:18:13.095Z,8.63
2024-05-09T07:20:40.486Z,8.53
2024-05-09T07:23:12.568Z,8.50
2024-05-09T07:25:40.728Z,8.67
2024-05-09T07:28:13.439Z,8.10
2024-05-09T07:30:40.274Z,8.82
2024-05-09T07:33:07.038Z,8.70
2024-05-09T07:35:34.164Z,7.93
2024-05-09T07:38:01.068Z,8.70
2024-05-09T07:40:33.391Z,8.60
2024-05-09T07:43:04.308Z,8.40
2024-05-09T07:45:47.967Z,7.87
2024-05-09T07:53:39.123Z,8.37
2024-05-09T07:56:09.950Z,7.90
2024-05-09T07:58:37.406Z,8.40
2024-05-09T08:01:04.818Z,8.10
2024-05-09T08:03:31.641Z,7.50
2024-05-09T08:05:58.355Z,7.87
2024-05-09T08:08:25.031Z,7.80
2024-05-09T08:10:51.761Z,7.70
2024-05-09T08:13:18.533Z,7.55
2024-05-09T08:15:45.439Z,7.63
2024-05-09T08:18:12.386Z,7.40
2024-05-09T08:20:41.116Z,6.85
2024-05-09T08:23:07.874Z,7.67
2024-05-09T08:25:34.493Z,7.50
2024-05-09T08:28:01.336Z,7.40
2024-05-09T08:30:33.750Z,7.30
2024-05-09T08:33:04.628Z,7.40
2024-05-09T08:35:31.969Z,7.67
2024-05-09T08:37:59.048Z,7.47
2024-05-09T08:40:33.386Z,7.23
2024-05-09T08:43:05.664Z,7.33
2024-05-09T08:45:34.603Z,7.22
2024-05-09T08:48:05.775Z,6.73
2024-05-09T08:50:38.723Z,7.10
2024-05-09T08:53:07.485Z,7.00
2024-05-09T08:55:35.445Z,7.20
2024-05-09T08:58:04.061Z,6.50
2024-05-09T09:00:36.871Z,5.83
2024-05-09T09:03:09.090Z,6.22
2024-05-09T09:05:39.316Z,6.10
2024-05-09T09:08:08.242Z,6.57
2024-05-09T09:10:35.763Z,5.90
2024-05-09T09:13:09.423Z,6.77
2024-05-09T09:15:50.674Z,6.83
2024-05-09T09:18:18.678Z,6.88
2024-05-09T09:20:45.801Z,7.00
2024-05-09T09:23:12.620Z,6.67
2024-05-09T09:25:40.426Z,6.90
2024-05-09T09:28:07.778Z,6.63
2024-05-09T09:30:37.647Z,6.63
2024-05-09T09:33:12.013Z,7.10
2024-05-09T09:35:42.056Z,6.57
2024-05-09T09:38:10.441Z,6.03
2024-05-09T09:40:45.026Z,6.77
2024-05-09T09:43:20.224Z,7.35
2024-05-09T09:45:50.446Z,6.47
2024-05-09T09:48:17.378Z,6.17
2024-05-09T09:50:45.319Z,6.90
2024-05-09T09:53:13.792Z,6.50
2024-05-09T09:55:41.672Z,5.87
2024-05-09T09:58:13.198Z,6.40
2024-05-09T10:00:41.005Z,6.78
2024-05-09T10:03:07.744Z,6.10
2024-05-09T10:05:35.209Z,5.60
2024-05-09T10:08:07.335Z,5.50
2024-05-09T10:10:35.399Z,5.13
2024-05-09T10:13:09.036Z,5.60
2024-05-09T10:15:52.806Z,5.63
2024-05-09T10:18:27.011Z,4.85
2024-05-09T10:20:55.991Z,5.63
2024-05-09T10:23:27.877Z,5.87
2024-05-09T10:26:03.489Z,5.20
2024-05-09T10:28:37.440Z,5.87
2024-05-09T10:31:08.098Z,5.27
2024-05-09T10:33:52.645Z,4.70
2024-05-09T10:36:21.911Z,4.50
2024-05-09T10:38:49.783Z,4.10
2024-05-09T10:41:17.350Z,4.80
2024-05-09T10:43:44.204Z,4.93
2024-05-09T10:46:11.840Z,5.30
2024-05-09T10:48:39.592Z,4.47
2024-05-09T10:51:06.436Z,5.00
2024-05-09T10:53:40.941Z,4.10
2024-05-09T10:56:07.840Z,4.37
2024-05-09T10:58:34.743Z,5.18
2024-05-09T11:01:05.425Z,4.80
2024-05-09T11:03:33.448Z,5.80
2024-05-09T11:06:00.597Z,5.13
2024-05-09T11:08:27.662Z,5.15
2024-05-09T11:10:54.943Z,5.40
2024-05-09T11:13:32.044Z,4.80
2024-05-09T11:16:00.263Z,5.53
2024-05-09T11:18:35.333Z,5.53
2024-05-09T11:21:12.399Z,5.23
2024-05-09T11:23:39.790Z,5.70
2024-05-09T11:26:06.905Z,5.03
2024-05-09T11:28:33.540Z,5.20
2024-05-09T11:31:08.657Z,4.83
2024-05-09T11:33:45.319Z,5.80
2024-05-09T11:36:12.655Z,4.63
2024-05-09T11:38:39.567Z,4.30
2024-05-09T11:41:06.526Z,6.03
2024-05-09T11:43:33.690Z,5.60
2024-05-09T11:46:00.843Z,6.20
2024-05-09T11:48:28.256Z,6.85
2024-05-09T11:50:56.434Z,6.43
2024-05-09T11:53:23.194Z,7.13
2024-05-09T11:55:50.115Z,6.60
2024-05-09T11:58:18.360Z,7.28
2024-05-09T12:00:46.386Z,6.80
2024-05-09T12:03:13.532Z,6.80
2024-05-09T12:05:40.580Z,7.28
2024-05-09T12:08:07.625Z,6.50
2024-05-09T12:10:36.141Z,6.73
2024-05-09T12:13:05.846Z,5.97
2024-05-09T12:15:36.269Z,6.30
2024-05-09T12:18:04.577Z,6.13
2024-05-09T12:20:37.420Z,6.60
2024-05-09T12:23:07.533Z,6.35
2024-05-09T12:25:35.855Z,6.13
2024-05-09T12:28:02.636Z,6.00
2024-05-09T12:30:36.549Z,6.70
2024-05-09T12:33:12.101Z,5.90
2024-05-09T12:35:39.741Z,6.20
2024-05-09T12:38:06.486Z,6.38
2024-05-09T12:40:36.925Z,6.30
2024-05-09T12:43:09.962Z,7.00
2024-05-09T12:45:38.140Z,6.43
2024-05-09T12:48:08.229Z,6.53
2024-05-09T12:50:36.328Z,6.60
2024-05-09T12:53:04.321Z,6.13
2024-05-09T12:55:37.710Z,7.25
2024-05-09T12:58:11.973Z,6.40
2024-05-09T13:00:39.075Z,7.20
2024-05-09T13:03:06.317Z,7.20
2024-05-09T13:05:33.377Z,6.80
2024-05-09T13:08:00.803Z,7.67
2024-05-09T13:10:32.109Z,7.57
2024-05-09T13:13:00.907Z,7.13
2024-05-09T13:15:29.854Z,7.27
2024-05-09T13:18:00.288Z,6.70
2024-05-09T13:20:33.230Z,7.25
2024-05-09T13:23:03.261Z,7.30
2024-05-09T13:25:29.959Z,7.33
2024-05-09T13:27:57.585Z,6.43
2024-05-09T13:32:54.898Z,7.43
2024-05-09T13:35:21.676Z,7.27
2024-05-09T13:37:48.596Z,7.60
2024-05-09T13:40:23.214Z,6.97
2024-05-09T13:42:54.000Z,7.47
2024-05-09T13:45:20.665Z,7.35
2024-05-09T13:47:47.509Z,7.43
2024-05-09T13:50:23.180Z,7.17
2024-05-09T13:52:54.844Z,7.35
2024-05-09T13:55:21.512Z,7.10
2024-05-09T13:57:48.408Z,6.93
2024-05-09T14:00:27.324Z,6.80
2024-05-09T14:03:02.341Z,7.47
2024-05-09T14:05:29.230Z,6.67
2024-05-09T14:07:55.999Z,6.80
2024-05-09T14:10:28.561Z,6.82
2024-05-09T14:12:57.604Z,6.30
2024-05-09T14:15:24.309Z,7.10
2024-05-09T14:17:50.997Z,6.97
2024-05-09T14:20:28.153Z,7.00
2024-05-09T14:22:58.505Z,6.93
2024-05-09T14:25:28.589Z,6.87
2024-05-09T14:27:57.472Z,7.30
2024-05-09T14:30:31.014Z,7.50
2024-05-09T14:33:03.762Z,6.83
2024-05-09T14:35:30.653Z,7.20
2024-05-09T14:37:57.335Z,6.70
2024-05-09T14:42:53.613Z,7.47
2024-05-09T14:45:20.337Z,7.60
2024-05-09T14:47:47.086Z,7.53
2024-05-09T14:50:19.538Z,7.43
2024-05-09T14:52:54.211Z,7.22
2024-05-09T14:55:20.874Z,8.00
2024-05-09T14:57:47.682Z,8.50
2024-05-09T15:00:21.366Z,8.02
2024-05-09T15:02:53.136Z,7.63
2024-05-09T15:05:19.956Z,7.20
2024-05-09T15:07:46.700Z,7.13
2024-05-09T15:10:20.419Z,7.70
2024-05-09T15:12:50.678Z,7.50
2024-05-09T15:15:17.841Z,7.33
2024-05-09T15:17:45.033Z,7.65
2024-05-09T15:20:17.152Z,6.93
2024-05-09T15:22:46.976Z,7.93
2024-05-09T15:25:13.889Z,8.73
2024-05-09T15:27:40.767Z,8.37
2024-05-09T15:30:10.745Z,10.70
2024-05-09T15:32:37.969Z,10.00
2024-05-09T15:35:05.622Z,9.57
2024-05-09T15:37:32.654Z,8.50
2024-05-09T15:39:59.456Z,9.07
2024-05-09T15:42:26.127Z,9.23
2024-05-09T15:44:53.071Z,8.50
2024-05-09T15:47:20.154Z,9.33
2024-05-09T15:49:47.654Z,9.75
2024-05-09T15:52:17.760Z,10.27
2024-05-09T15:54:44.555Z,9.93
2024-05-09T15:57:11.957Z,10.25
2024-05-09T15:59:38.647Z,10.60
2024-05-09T16:02:05.872Z,10.53
2024-05-09T16:04:32.801Z,11.87
2024-05-09T16:06:59.643Z,10.95
2024-05-09T16:09:26.380Z,10.67
2024-05-09T16:11:53.021Z,8.93
2024-05-09T16:14:19.695Z,8.70
2024-05-09T16:16:46.943Z,9.00
2024-05-09T16:19:13.824Z,10.80
2024-05-09T16:21:40.508Z,11.65
2024-05-09T16:24:07.143Z,11.93
2024-05-09T16:26:33.828Z,11.43
2024-05-09T16:29:00.582Z,11.67
2024-05-09T16:31:27.330Z,11.68
2024-05-09T16:33:54.129Z,12.20
2024-05-09T16:36:21.321Z,11.80
2024-05-09T16:38:47.938Z,11.30
2024-05-09T16:41:15.555Z,10.57
2024-05-09T16:43:42.241Z,11.43
2024-05-09T16:46:09.026Z,12.00
2024-05-09T16:48:37.149Z,12.70
2024-05-09T16:51:03.906Z,12.40
2024-05-09T16:53:30.504Z,11.57
2024-05-09T16:55:57.275Z,11.70
2024-05-09T16:58:24.751Z,11.47
2024-05-09T17:00:51.651Z,11.87
2024-05-09T17:03:18.808Z,12.88
2024-05-09T17:05:46.680Z,12.57
2024-05-09T17:08:16.245Z,12.07
2024-05-09T17:10:44.562Z,12.32
2024-05-09T17:13:11.335Z,12.53
2024-05-09T17:15:38.206Z,13.20
2024-05-09T17:18:06.192Z,12.87
2024-05-09T17:20:36.234Z,12.85
2024-05-09T17:23:12.222Z,12.63
2024-05-09T17:25:42.127Z,12.50
2024-05-09T17:28:09.664Z,12.90
2024-05-09T17:30:38.602Z,12.87
2024-05-09T17:33:09.273Z,12.13
2024-05-09T17:35:37.468Z,12.75
2024-05-09T17:38:05.680Z,12.47
2024-05-09T17:40:35.883Z,12.10
2024-05-09T17:43:05.325Z,12.03
2024-05-09T17:45:32.996Z,12.05
2024-05-09T17:48:00.498Z,12.67
2024-05-09T17:50:34.735Z,11.87
2024-05-09T17:53:03.803Z,12.40
2024-05-09T17:55:30.530Z,12.33
2024-05-09T17:57:57.442Z,12.27
2024-05-09T18:00:33.528Z,11.73
2024-05-09T18:03:06.241Z,12.23
2024-05-09T18:05:34.030Z,12.40
2024-05-09T18:08:00.812Z,13.07
2024-05-09T18:10:35.150Z,12.55
2024-05-09T18:13:05.664Z,12.47
2024-05-09T18:15:32.993Z,12.57
2024-05-09T18:18:00.143Z,13.30
2024-05-09T18:22:56.491Z,11.97
2024-05-09T18:25:23.167Z,12.45
2024-05-09T18:27:50.053Z,12.30
2024-05-09T18:30:24.139Z,13.40
2024-05-09T18:32:58.327Z,12.53
2024-05-09T18:35:25.077Z,12.35
2024-05-09T18:37:52.810Z,12.40
2024-05-09T18:40:27.333Z,11.77
2024-05-09T18:42:58.082Z,12.05
2024-05-09T18:45:24.877Z,11.30
2024-05-09T18:47:51.729Z,12.37
2024-05-09T18:50:28.436Z,12.50
2024-05-09T18:53:01.381Z,12.10
2024-05-09T18:55:28.134Z,12.47
2024-05-09T18:57:54.795Z,12.63
2024-05-09T19:00:31.441Z,13.20
2024-05-09T19:03:04.690Z,12.63
2024-05-09T19:05:32.221Z,13.63
2024-05-09T19:07:59.559Z,12.48
2024-05-09T19:10:32.180Z,12.80
2024-05-09T19:13:02.845Z,12.33
2024-05-09T19:15:30.824Z,11.98
2024-05-09T19:17:58.151Z,12.20
2024-05-09T19:20:31.341Z,12.97
2024-05-09T19:23:00.605Z,12.13
2024-05-09T19:25:27.220Z,12.73
2024-05-09T19:27:53.891Z,12.87
2024-05-09T19:30:29.381Z,12.97
2024-05-09T19:33:04.019Z,12.07
2024-05-09T19:35:30.743Z,11.70
2024-05-09T19:37:57.382Z,11.57
2024-05-09T19:40:30.608Z,12.38
2024-05-09T19:42:59.646Z,11.23
2024-05-09T19:45:26.367Z,11.40
2024-05-09T19:47:53.213Z,11.27
2024-05-09T19:50:27.002Z,11.60
2024-05-09T19:53:03.018Z,11.60
2024-05-09T19:55:29.778Z,11.30
2024-05-09T19:57:56.671Z,11.73
2024-05-09T20:00:32.307Z,11.93
2024-05-09T20:03:02.385Z,12.47
2024-05-09T20:05:31.090Z,11.98
2024-05-09T20:07:58.243Z,12.80
2024-05-09T20:10:31.134Z,12.63
2024-05-09T20:12:59.749Z,12.83
2024-05-09T20:15:26.735Z,12.77
2024-05-09T20:17:53.769Z,13.50
2024-05-09T20:20:28.611Z,12.87
2024-05-09T20:23:03.226Z,12.73
2024-05-09T20:25:30.018Z,14.40
2024-05-09T20:27:56.823Z,14.40
2024-05-09T20:30:31.230Z,15.25
2024-05-09T20:33:01.185Z,16.87
2024-05-09T20:35:31.824Z,15.60
2024-05-09T20:37:59.263Z,14.93
2024-05-09T20:40:31.902Z,15.45
2024-05-09T20:43:02.304Z,15.43
2024-05-09T20:45:28.974Z,14.50
2024-05-09T20:47:56.028Z,16.50
2024-05-09T20:50:29.308Z,14.03
2024-05-09T20:53:03.740Z,15.17
2024-05-09T20:55:30.631Z,15.88
2024-05-09T20:57:57.623Z,16.30
2024-05-09T21:00:33.807Z,16.97
2024-05-09T21:03:06.523Z,16.40
2024-05-09T21:05:34.123Z,17.35
2024-05-09T21:08:01.224Z,16.50
2024-05-09T21:10:32.653Z,17.00
2024-05-09T21:13:01.693Z,17.27
2024-05-09T21:15:28.898Z,16.77
2024-05-09T21:17:55.580Z,17.00
2024-05-09T21:20:28.325Z,17.50
2024-05-09T21:22:57.818Z,18.50
2024-05-09T21:25:24.563Z,17.80
2024-05-09T21:27:51.743Z,17.63
2024-05-09T21:30:27.746Z,17.13
2024-05-09T21:33:04.581Z,17.40
2024-05-09T21:35:31.347Z,17.03
2024-05-09T21:37:57.966Z,16.85
2024-05-09T21:40:31.565Z,18.13
2024-05-09T21:43:01.713Z,16.17
2024-05-09T21:45:28.505Z,16.23
2024-05-09T21:47:55.386Z,16.87
2024-05-09T21:50:28.749Z,17.40
2024-05-09T21:53:03.670Z,17.07
2024-05-09T21:55:30.331Z,16.63
2024-05-09T21:57:57.215Z,16.27
2024-05-09T22:00:32.097Z,16.63
2024-05-09T22:03:03.487Z,17.15
2024-05-09T22:05:30.896Z,16.03
2024-05-09T22:07:57.793Z,15.50
2024-05-09T22:10:30.815Z,16.55
2024-05-09T22:13:01.594Z,16.83
2024-05-09T22:15:28.488Z,16.90
2024-05-09T22:17:57.122Z,17.27
2024-05-09T22:20:33.150Z,16.67
2024-05-09T22:23:04.220Z,17.67
2024-05-09T22:25:32.101Z,18.50
2024-05-09T22:28:00.140Z,16.08
2024-05-09T22:30:35.513Z,15.67
2024-05-09T22:33:09.778Z,15.00
2024-05-09T22:35:37.779Z,16.80
2024-05-09T22:38:04.546Z,17.30
2024-05-09T22:40:41.992Z,16.33
2024-05-09T22:43:17.347Z,15.93
2024-05-09T22:45:44.473Z,16.45
2024-05-09T22:48:11.257Z,17.20
2024-05-09T22:50:38.123Z,18.43
2024-05-09T22:53:05.479Z,16.88
2024-05-09T22:55:32.158Z,16.20
2024-05-09T22:57:58.921Z,17.07
2024-05-09T23:00:31.497Z,16.13
2024-05-09T23:03:00.847Z,14.80
2024-05-09T23:05:28.329Z,16.33
2024-05-09T23:07:55.133Z,16.83
2024-05-09T23:10:28.418Z,17.48
2024-05-09T23:13:01.802Z,18.17
2024-05-09T23:15:28.836Z,17.23
2024-05-09T23:17:55.796Z,19.02
2024-05-09T23:20:33.157Z,15.37
2024-05-09T23:23:05.126Z,17.17
2024-05-09T23:25:31.798Z,17.17
2024-05-09T23:27:58.707Z,17.93
2024-05-09T23:30:33.979Z,17.80
2024-05-09T23:33:05.668Z,17.70
2024-05-09T23:35:32.722Z,16.75
2024-05-09T23:37:59.597Z,15.03
2024-05-09T23:40:37.052Z,15.30
2024-05-09T23:43:07.310Z,16.00
2024-05-09T23:45:34.483Z,14.53
2024-05-09T23:48:01.633Z,14.13
2024-05-09T23:50:35.797Z,13.77
2024-05-09T23:53:06.551Z,12.87
2024-05-09T23:55:34.283Z,12.50
2024-05-09T23:58:01.136Z,11.90
